sensor_id;sensor_type;location;lat;lon;timestamp;temperature;humidity
81895;DHT22;71358;45.642;13.758;2023-09-19T00:01:21;27.10;63.10
81895;DHT22;71358;45.642;13.758;2023-09-19T00:04:07;27.10;63.10
81895;DHT22;71358;45.642;13.758;2023-09-19T00:06:54;27.10;63.10
81895;DHT22;71358;45.642;13.758;2023-09-19T00:09:38;27.10;63.10
81895;DHT22;71358;45.642;13.758;2023-09-19T00:12:23;27.10;63.20
81895;DHT22;71358;45.642;13.758;2023-09-19T00:15:08;27.10;63.10
81895;DHT22;71358;45.642;13.758;2023-09-19T00:17:55;27.10;63.10
81895;DHT22;71358;45.642;13.758;2023-09-19T00:20:40;27.10;63.20
81895;DHT22;71358;45.642;13.758;2023-09-19T00:23:26;27.10;63.10
81895;DHT22;71358;45.642;13.758;2023-09-19T00:26:12;27.10;63.10
81895;DHT22;71358;45.642;13.758;2023-09-19T00:28:59;27.10;63.10
81895;DHT22;71358;45.642;13.758;2023-09-19T00:31:52;27.10;63.10
81895;DHT22;71358;45.642;13.758;2023-09-19T00:34:38;27.10;63.10
81895;DHT22;71358;45.642;13.758;2023-09-19T00:37:23;27.10;63.00
81895;DHT22;71358;45.642;13.758;2023-09-19T00:40:08;27.10;63.00
81895;DHT22;71358;45.642;13.758;2023-09-19T00:42:59;27.10;63.00
81895;DHT22;71358;45.642;13.758;2023-09-19T00:45:48;27.10;63.00
81895;DHT22;71358;45.642;13.758;2023-09-19T00:48:40;27.10;63.30
81895;DHT22;71358;45.642;13.758;2023-09-19T00:51:26;27.10;63.00
81895;DHT22;71358;45.642;13.758;2023-09-19T00:54:11;27.10;63.00
81895;DHT22;71358;45.642;13.758;2023-09-19T00:57:01;27.10;63.00
81895;DHT22;71358;45.642;13.758;2023-09-19T00:59:47;27.10;63.00
81895;DHT22;71358;45.642;13.758;2023-09-19T01:02:34;27.10;63.00
81895;DHT22;71358;45.642;13.758;2023-09-19T01:05:19;27.10;63.00
81895;DHT22;71358;45.642;13.758;2023-09-19T01:08:04;27.10;63.00
81895;DHT22;71358;45.642;13.758;2023-09-19T01:14:34;27.10;63.00
81895;DHT22;71358;45.642;13.758;2023-09-19T01:17:25;27.10;63.00
81895;DHT22;71358;45.642;13.758;2023-09-19T01:32:11;27.10;63.20
81895;DHT22;71358;45.642;13.758;2023-09-19T01:34:57;27.10;63.20
81895;DHT22;71358;45.642;13.758;2023-09-19T01:37:48;27.10;63.20
81895;DHT22;71358;45.642;13.758;2023-09-19T01:40:41;27.10;63.20
81895;DHT22;71358;45.642;13.758;2023-09-19T01:43:33;27.10;63.20
81895;DHT22;71358;45.642;13.758;2023-09-19T01:46:32;27.10;63.20
81895;DHT22;71358;45.642;13.758;2023-09-19T01:49:44;27.10;63.20
81895;DHT22;71358;45.642;13.758;2023-09-19T01:52:38;27.10;64.00
81895;DHT22;71358;45.642;13.758;2023-09-19T01:55:28;27.10;63.30
81895;DHT22;71358;45.642;13.758;2023-09-19T01:58:17;27.10;63.30
81895;DHT22;71358;45.642;13.758;2023-09-19T02:01:05;27.10;63.30
81895;DHT22;71358;45.642;13.758;2023-09-19T02:03:53;27.10;63.30
81895;DHT22;71358;45.642;13.758;2023-09-19T02:06:41;27.10;63.30
81895;DHT22;71358;45.642;13.758;2023-09-19T02:09:26;27.10;63.30
81895;DHT22;71358;45.642;13.758;2023-09-19T02:12:11;27.10;63.30
81895;DHT22;71358;45.642;13.758;2023-09-19T02:14:55;27.10;63.30
81895;DHT22;71358;45.642;13.758;2023-09-19T02:17:45;27.10;63.40
81895;DHT22;71358;45.642;13.758;2023-09-19T02:20:30;27.10;63.40
81895;DHT22;71358;45.642;13.758;2023-09-19T02:23:17;27.10;63.40
81895;DHT22;71358;45.642;13.758;2023-09-19T02:26:01;27.10;63.40
81895;DHT22;71358;45.642;13.758;2023-09-19T02:28:46;27.10;63.40
81895;DHT22;71358;45.642;13.758;2023-09-19T02:31:30;27.10;63.40
81895;DHT22;71358;45.642;13.758;2023-09-19T02:34:15;27.10;63.40
81895;DHT22;71358;45.642;13.758;2023-09-19T02:37:05;27.10;63.50
81895;DHT22;71358;45.642;13.758;2023-09-19T02:39:49;27.10;63.50
81895;DHT22;71358;45.642;13.758;2023-09-19T02:42:34;27.10;63.50
81895;DHT22;71358;45.642;13.758;2023-09-19T02:45:19;27.10;63.50
81895;DHT22;71358;45.642;13.758;2023-09-19T02:48:03;27.10;63.60
81895;DHT22;71358;45.642;13.758;2023-09-19T02:50:51;27.10;63.50
81895;DHT22;71358;45.642;13.758;2023-09-19T02:53:36;27.10;63.40
81895;DHT22;71358;45.642;13.758;2023-09-19T02:56:21;27.10;63.50
81895;DHT22;71358;45.642;13.758;2023-09-19T02:59:06;27.10;63.50
81895;DHT22;71358;45.642;13.758;2023-09-19T03:01:51;27.10;63.50
81895;DHT22;71358;45.642;13.758;2023-09-19T03:04:36;27.10;63.50
81895;DHT22;71358;45.642;13.758;2023-09-19T03:07:20;27.20;63.60
81895;DHT22;71358;45.642;13.758;2023-09-19T03:10:08;27.20;63.70
81895;DHT22;71358;45.642;13.758;2023-09-19T03:12:54;27.20;63.60
81895;DHT22;71358;45.642;13.758;2023-09-19T03:15:41;27.20;63.60
81895;DHT22;71358;45.642;13.758;2023-09-19T03:18:29;27.20;63.70
81895;DHT22;71358;45.642;13.758;2023-09-19T03:21:15;27.20;63.80
81895;DHT22;71358;45.642;13.758;2023-09-19T03:24:00;27.20;63.80
81895;DHT22;71358;45.642;13.758;2023-09-19T03:26:45;27.10;63.70
81895;DHT22;71358;45.642;13.758;2023-09-19T03:29:30;27.10;63.70
81895;DHT22;71358;45.642;13.758;2023-09-19T03:32:15;27.20;63.80
81895;DHT22;71358;45.642;13.758;2023-09-19T03:34:59;27.20;63.80
81895;DHT22;71358;45.642;13.758;2023-09-19T03:37:44;27.20;63.80
81895;DHT22;71358;45.642;13.758;2023-09-19T03:40:29;27.20;63.80
81895;DHT22;71358;45.642;13.758;2023-09-19T03:43:14;27.20;63.70
81895;DHT22;71358;45.642;13.758;2023-09-19T03:46:01;27.20;63.70
81895;DHT22;71358;45.642;13.758;2023-09-19T03:48:49;27.20;63.70
81895;DHT22;71358;45.642;13.758;2023-09-19T03:51:34;27.20;63.80
81895;DHT22;71358;45.642;13.758;2023-09-19T03:54:19;27.20;63.80
81895;DHT22;71358;45.642;13.758;2023-09-19T03:57:03;27.20;63.80
81895;DHT22;71358;45.642;13.758;2023-09-19T03:59:48;27.20;63.80
81895;DHT22;71358;45.642;13.758;2023-09-19T04:02:33;27.20;63.80
81895;DHT22;71358;45.642;13.758;2023-09-19T04:05:18;27.20;63.80
81895;DHT22;71358;45.642;13.758;2023-09-19T04:08:04;27.20;63.80
81895;DHT22;71358;45.642;13.758;2023-09-19T04:10:49;27.20;63.80
81895;DHT22;71358;45.642;13.758;2023-09-19T04:13:35;27.20;63.80
81895;DHT22;71358;45.642;13.758;2023-09-19T04:16:19;27.20;63.80
81895;DHT22;71358;45.642;13.758;2023-09-19T04:19:04;27.20;63.80
81895;DHT22;71358;45.642;13.758;2023-09-19T04:21:49;27.20;63.90
81895;DHT22;71358;45.642;13.758;2023-09-19T04:24:34;27.20;63.80
81895;DHT22;71358;45.642;13.758;2023-09-19T04:27:19;27.20;63.80
81895;DHT22;71358;45.642;13.758;2023-09-19T04:30:04;27.20;63.80
81895;DHT22;71358;45.642;13.758;2023-09-19T04:32:54;27.20;63.80
81895;DHT22;71358;45.642;13.758;2023-09-19T04:35:38;27.20;63.80
81895;DHT22;71358;45.642;13.758;2023-09-19T04:38:23;27.20;63.80
81895;DHT22;71358;45.642;13.758;2023-09-19T04:41:08;27.20;63.80
81895;DHT22;71358;45.642;13.758;2023-09-19T04:43:52;27.20;63.80
81895;DHT22;71358;45.642;13.758;2023-09-19T04:46:37;27.20;63.80
81895;DHT22;71358;45.642;13.758;2023-09-19T04:49:21;27.20;63.80
81895;DHT22;71358;45.642;13.758;2023-09-19T04:52:06;27.20;63.80
81895;DHT22;71358;45.642;13.758;2023-09-19T04:54:50;27.20;63.80
81895;DHT22;71358;45.642;13.758;2023-09-19T04:57:35;27.20;63.80
81895;DHT22;71358;45.642;13.758;2023-09-19T05:00:21;27.20;63.80
81895;DHT22;71358;45.642;13.758;2023-09-19T05:03:08;27.20;63.80
81895;DHT22;71358;45.642;13.758;2023-09-19T05:05:53;27.20;63.80
81895;DHT22;71358;45.642;13.758;2023-09-19T05:08:38;27.20;63.80
81895;DHT22;71358;45.642;13.758;2023-09-19T05:11:22;27.20;63.80
81895;DHT22;71358;45.642;13.758;2023-09-19T05:14:08;27.20;63.80
81895;DHT22;71358;45.642;13.758;2023-09-19T05:16:52;27.20;63.80
81895;DHT22;71358;45.642;13.758;2023-09-19T05:19:37;27.20;63.80
81895;DHT22;71358;45.642;13.758;2023-09-19T05:22:22;27.10;63.60
81895;DHT22;71358;45.642;13.758;2023-09-19T05:25:12;27.20;63.80
81895;DHT22;71358;45.642;13.758;2023-09-19T05:28:00;27.20;63.70
81895;DHT22;71358;45.642;13.758;2023-09-19T05:30:47;27.20;63.70
81895;DHT22;71358;45.642;13.758;2023-09-19T05:33:32;27.20;63.70
81895;DHT22;71358;45.642;13.758;2023-09-19T05:36:17;27.20;63.60
81895;DHT22;71358;45.642;13.758;2023-09-19T05:39:02;27.20;63.60
81895;DHT22;71358;45.642;13.758;2023-09-19T05:41:46;27.20;63.60
81895;DHT22;71358;45.642;13.758;2023-09-19T05:44:31;27.20;63.60
81895;DHT22;71358;45.642;13.758;2023-09-19T05:47:17;27.10;63.70
81895;DHT22;71358;45.642;13.758;2023-09-19T05:50:02;27.20;63.80
81895;DHT22;71358;45.642;13.758;2023-09-19T05:52:53;27.20;64.00
81895;DHT22;71358;45.642;13.758;2023-09-19T05:55:40;27.20;64.00
81895;DHT22;71358;45.642;13.758;2023-09-19T05:58:25;27.20;64.10
81895;DHT22;71358;45.642;13.758;2023-09-19T06:01:10;27.20;64.30
81895;DHT22;71358;45.642;13.758;2023-09-19T06:03:54;27.10;64.30
81895;DHT22;71358;45.642;13.758;2023-09-19T06:06:38;27.20;64.50
81895;DHT22;71358;45.642;13.758;2023-09-19T06:09:24;27.20;64.40
81895;DHT22;71358;45.642;13.758;2023-09-19T06:12:08;27.20;64.30
81895;DHT22;71358;45.642;13.758;2023-09-19T06:14:53;27.10;64.30
81895;DHT22;71358;45.642;13.758;2023-09-19T06:17:37;27.10;64.20
81895;DHT22;71358;45.642;13.758;2023-09-19T06:20:23;27.10;64.20
81895;DHT22;71358;45.642;13.758;2023-09-19T06:23:08;27.10;64.30
81895;DHT22;71358;45.642;13.758;2023-09-19T06:25:53;27.10;64.20
81895;DHT22;71358;45.642;13.758;2023-09-19T06:28:38;27.10;64.10
81895;DHT22;71358;45.642;13.758;2023-09-19T06:31:22;27.10;64.20
81895;DHT22;71358;45.642;13.758;2023-09-19T06:34:10;27.10;64.00
81895;DHT22;71358;45.642;13.758;2023-09-19T06:36:54;27.10;64.00
81895;DHT22;71358;45.642;13.758;2023-09-19T06:39:39;27.10;63.90
81895;DHT22;71358;45.642;13.758;2023-09-19T06:42:24;27.20;63.90
81895;DHT22;71358;45.642;13.758;2023-09-19T06:45:09;27.10;63.70
81895;DHT22;71358;45.642;13.758;2023-09-19T06:47:55;27.10;63.70
81895;DHT22;71358;45.642;13.758;2023-09-19T06:50:42;27.10;63.70
81895;DHT22;71358;45.642;13.758;2023-09-19T06:53:28;27.10;63.70
81895;DHT22;71358;45.642;13.758;2023-09-19T06:56:16;27.10;63.80
81895;DHT22;71358;45.642;13.758;2023-09-19T06:59:00;27.20;63.90
81895;DHT22;71358;45.642;13.758;2023-09-19T07:01:46;27.10;63.70
81895;DHT22;71358;45.642;13.758;2023-09-19T07:04:31;27.20;63.70
81895;DHT22;71358;45.642;13.758;2023-09-19T07:07:16;27.20;63.70
81895;DHT22;71358;45.642;13.758;2023-09-19T07:10:02;27.20;63.70
81895;DHT22;71358;45.642;13.758;2023-09-19T07:12:46;27.20;63.70
81895;DHT22;71358;45.642;13.758;2023-09-19T07:15:33;27.20;63.70
81895;DHT22;71358;45.642;13.758;2023-09-19T07:18:23;27.20;63.70
81895;DHT22;71358;45.642;13.758;2023-09-19T07:21:08;27.20;63.90
81895;DHT22;71358;45.642;13.758;2023-09-19T07:23:55;27.20;63.70
81895;DHT22;71358;45.642;13.758;2023-09-19T07:26:39;27.20;63.50
81895;DHT22;71358;45.642;13.758;2023-09-19T07:29:24;27.30;63.40
81895;DHT22;71358;45.642;13.758;2023-09-19T07:32:10;27.30;63.20
81895;DHT22;71358;45.642;13.758;2023-09-19T07:34:54;27.30;63.20
81895;DHT22;71358;45.642;13.758;2023-09-19T07:37:39;27.30;63.30
81895;DHT22;71358;45.642;13.758;2023-09-19T07:40:24;27.40;63.50
81895;DHT22;71358;45.642;13.758;2023-09-19T07:43:10;27.30;63.40
81895;DHT22;71358;45.642;13.758;2023-09-19T07:45:55;27.30;64.00
81895;DHT22;71358;45.642;13.758;2023-09-19T07:48:40;27.30;63.10
81895;DHT22;71358;45.642;13.758;2023-09-19T07:51:25;27.30;63.00
81895;DHT22;71358;45.642;13.758;2023-09-19T07:54:10;27.30;63.00
81895;DHT22;71358;45.642;13.758;2023-09-19T07:56:54;27.30;62.90
81895;DHT22;71358;45.642;13.758;2023-09-19T07:59:39;27.30;62.80
81895;DHT22;71358;45.642;13.758;2023-09-19T08:02:26;27.30;62.90
81895;DHT22;71358;45.642;13.758;2023-09-19T08:05:13;27.30;62.90
81895;DHT22;71358;45.642;13.758;2023-09-19T08:08:00;27.30;62.90
81895;DHT22;71358;45.642;13.758;2023-09-19T08:10:45;27.30;63.00
81895;DHT22;71358;45.642;13.758;2023-09-19T08:13:32;27.30;63.00
81895;DHT22;71358;45.642;13.758;2023-09-19T08:16:18;27.30;62.90
81895;DHT22;71358;45.642;13.758;2023-09-19T08:19:04;27.30;62.90
81895;DHT22;71358;45.642;13.758;2023-09-19T08:21:50;27.30;62.90
81895;DHT22;71358;45.642;13.758;2023-09-19T08:24:34;27.30;62.90
81895;DHT22;71358;45.642;13.758;2023-09-19T08:27:19;27.30;62.80
81895;DHT22;71358;45.642;13.758;2023-09-19T08:30:04;27.30;62.80
81895;DHT22;71358;45.642;13.758;2023-09-19T08:32:50;27.30;62.80
81895;DHT22;71358;45.642;13.758;2023-09-19T08:35:35;27.30;62.80
81895;DHT22;71358;45.642;13.758;2023-09-19T08:38:20;27.30;62.70
81895;DHT22;71358;45.642;13.758;2023-09-19T08:41:08;27.30;63.00
81895;DHT22;71358;45.642;13.758;2023-09-19T08:43:52;27.40;63.00
81895;DHT22;71358;45.642;13.758;2023-09-19T08:46:39;27.40;62.90
81895;DHT22;71358;45.642;13.758;2023-09-19T08:52:42;27.40;63.20
81895;DHT22;71358;45.642;13.758;2023-09-19T08:55:31;27.40;63.20
81895;DHT22;71358;45.642;13.758;2023-09-19T08:58:17;27.50;63.30
81895;DHT22;71358;45.642;13.758;2023-09-19T09:01:05;27.50;63.30
81895;DHT22;71358;45.642;13.758;2023-09-19T09:03:53;27.50;63.40
81895;DHT22;71358;45.642;13.758;2023-09-19T09:06:38;27.50;63.40
81895;DHT22;71358;45.642;13.758;2023-09-19T09:09:24;27.50;63.40
81895;DHT22;71358;45.642;13.758;2023-09-19T09:12:11;27.50;63.40
81895;DHT22;71358;45.642;13.758;2023-09-19T09:14:57;27.50;63.50
81895;DHT22;71358;45.642;13.758;2023-09-19T09:17:42;27.40;63.40
81895;DHT22;71358;45.642;13.758;2023-09-19T09:20:27;27.50;63.50
81895;DHT22;71358;45.642;13.758;2023-09-19T09:23:12;27.50;63.50
81895;DHT22;71358;45.642;13.758;2023-09-19T09:25:58;27.50;63.40
81895;DHT22;71358;45.642;13.758;2023-09-19T09:28:46;27.50;63.40
81895;DHT22;71358;45.642;13.758;2023-09-19T09:31:32;27.50;63.40
81895;DHT22;71358;45.642;13.758;2023-09-19T09:34:17;27.50;63.50
81895;DHT22;71358;45.642;13.758;2023-09-19T09:37:02;27.50;63.50
81895;DHT22;71358;45.642;13.758;2023-09-19T09:39:50;27.50;63.50
81895;DHT22;71358;45.642;13.758;2023-09-19T09:42:38;27.50;63.50
81895;DHT22;71358;45.642;13.758;2023-09-19T09:45:25;27.50;63.50
81895;DHT22;71358;45.642;13.758;2023-09-19T09:48:25;27.50;63.40
81895;DHT22;71358;45.642;13.758;2023-09-19T09:51:29;27.50;63.50
81895;DHT22;71358;45.642;13.758;2023-09-19T09:54:16;27.50;63.60
81895;DHT22;71358;45.642;13.758;2023-09-19T09:57:01;27.50;63.80
81895;DHT22;71358;45.642;13.758;2023-09-19T10:00:00;27.50;63.80
81895;DHT22;71358;45.642;13.758;2023-09-19T10:02:56;27.50;63.90
81895;DHT22;71358;45.642;13.758;2023-09-19T10:05:44;27.50;63.90
81895;DHT22;71358;45.642;13.758;2023-09-19T10:08:29;27.50;63.80
81895;DHT22;71358;45.642;13.758;2023-09-19T10:11:16;27.50;63.70
81895;DHT22;71358;45.642;13.758;2023-09-19T10:14:01;27.50;63.60
81895;DHT22;71358;45.642;13.758;2023-09-19T10:16:54;27.40;63.40
81895;DHT22;71358;45.642;13.758;2023-09-19T10:19:57;27.40;63.30
81895;DHT22;71358;45.642;13.758;2023-09-19T10:22:43;27.40;62.90
81895;DHT22;71358;45.642;13.758;2023-09-19T10:25:36;27.40;62.30
81895;DHT22;71358;45.642;13.758;2023-09-19T10:28:21;27.40;61.40
81895;DHT22;71358;45.642;13.758;2023-09-19T10:31:06;27.40;60.60
81895;DHT22;71358;45.642;13.758;2023-09-19T10:33:54;27.40;60.10
81895;DHT22;71358;45.642;13.758;2023-09-19T10:36:39;27.30;59.60
81895;DHT22;71358;45.642;13.758;2023-09-19T10:39:30;27.30;59.20
81895;DHT22;71358;45.642;13.758;2023-09-19T10:42:20;27.30;58.90
81895;DHT22;71358;45.642;13.758;2023-09-19T10:45:06;27.30;58.70
81895;DHT22;71358;45.642;13.758;2023-09-19T10:47:57;27.30;58.60
81895;DHT22;71358;45.642;13.758;2023-09-19T10:51:08;27.30;58.50
81895;DHT22;71358;45.642;13.758;2023-09-19T10:54:01;27.20;58.40
81895;DHT22;71358;45.642;13.758;2023-09-19T10:56:50;27.20;58.50
81895;DHT22;71358;45.642;13.758;2023-09-19T10:59:36;27.20;58.40
81895;DHT22;71358;45.642;13.758;2023-09-19T11:02:20;27.20;58.40
81895;DHT22;71358;45.642;13.758;2023-09-19T11:05:14;27.20;58.30
81895;DHT22;71358;45.642;13.758;2023-09-19T11:07:59;27.20;58.00
81895;DHT22;71358;45.642;13.758;2023-09-19T11:10:50;27.20;57.90
81895;DHT22;71358;45.642;13.758;2023-09-19T11:13:35;27.20;58.00
81895;DHT22;71358;45.642;13.758;2023-09-19T11:16:21;27.20;58.20
81895;DHT22;71358;45.642;13.758;2023-09-19T11:19:07;27.20;58.80
81895;DHT22;71358;45.642;13.758;2023-09-19T11:21:54;27.20;59.10
81895;DHT22;71358;45.642;13.758;2023-09-19T11:24:39;27.30;59.50
81895;DHT22;71358;45.642;13.758;2023-09-19T11:27:24;27.30;59.50
81895;DHT22;71358;45.642;13.758;2023-09-19T11:30:27;27.30;59.70
81895;DHT22;71358;45.642;13.758;2023-09-19T11:33:16;27.30;60.40
81895;DHT22;71358;45.642;13.758;2023-09-19T11:36:08;27.30;59.50
81895;DHT22;71358;45.642;13.758;2023-09-19T11:41:40;27.30;59.80
81895;DHT22;71358;45.642;13.758;2023-09-19T11:47:17;27.30;59.70
81895;DHT22;71358;45.642;13.758;2023-09-19T11:50:03;27.30;59.60
81895;DHT22;71358;45.642;13.758;2023-09-19T11:52:51;27.30;59.60
81895;DHT22;71358;45.642;13.758;2023-09-19T11:55:36;27.30;59.60
81895;DHT22;71358;45.642;13.758;2023-09-19T11:58:23;27.30;59.50
81895;DHT22;71358;45.642;13.758;2023-09-19T12:01:11;27.30;59.30
81895;DHT22;71358;45.642;13.758;2023-09-19T12:03:59;27.30;59.20
81895;DHT22;71358;45.642;13.758;2023-09-19T12:06:56;27.30;59.10
81895;DHT22;71358;45.642;13.758;2023-09-19T12:09:43;27.30;58.90
81895;DHT22;71358;45.642;13.758;2023-09-19T12:12:33;27.30;58.80
81895;DHT22;71358;45.642;13.758;2023-09-19T12:15:28;27.30;58.80
81895;DHT22;71358;45.642;13.758;2023-09-19T12:18:30;27.30;58.70
81895;DHT22;71358;45.642;13.758;2023-09-19T12:21:31;27.30;58.50
81895;DHT22;71358;45.642;13.758;2023-09-19T12:24:15;27.30;58.50
81895;DHT22;71358;45.642;13.758;2023-09-19T12:27:04;27.30;58.50
81895;DHT22;71358;45.642;13.758;2023-09-19T12:29:50;27.30;58.50
81895;DHT22;71358;45.642;13.758;2023-09-19T12:32:39;27.30;58.50
81895;DHT22;71358;45.642;13.758;2023-09-19T12:35:32;27.30;58.50
81895;DHT22;71358;45.642;13.758;2023-09-19T12:38:27;27.30;58.60
81895;DHT22;71358;45.642;13.758;2023-09-19T12:41:19;27.30;58.70
81895;DHT22;71358;45.642;13.758;2023-09-19T12:44:06;27.30;58.80
81895;DHT22;71358;45.642;13.758;2023-09-19T12:46:53;27.40;59.00
81895;DHT22;71358;45.642;13.758;2023-09-19T12:50:13;27.40;59.00
81895;DHT22;71358;45.642;13.758;2023-09-19T12:53:28;27.40;59.00
81895;DHT22;71358;45.642;13.758;2023-09-19T12:56:15;27.40;59.10
81895;DHT22;71358;45.642;13.758;2023-09-19T12:59:00;27.40;59.10
81895;DHT22;71358;45.642;13.758;2023-09-19T13:02:03;27.40;59.10
81895;DHT22;71358;45.642;13.758;2023-09-19T13:04:54;27.40;59.10
81895;DHT22;71358;45.642;13.758;2023-09-19T13:07:44;27.40;59.10
81895;DHT22;71358;45.642;13.758;2023-09-19T13:10:33;27.40;59.10
81895;DHT22;71358;45.642;13.758;2023-09-19T13:13:23;27.40;59.10
81895;DHT22;71358;45.642;13.758;2023-09-19T13:16:12;27.40;59.00
81895;DHT22;71358;45.642;13.758;2023-09-19T13:18:58;27.40;59.00
81895;DHT22;71358;45.642;13.758;2023-09-19T13:21:43;27.40;59.10
81895;DHT22;71358;45.642;13.758;2023-09-19T13:24:34;27.40;59.70
81895;DHT22;71358;45.642;13.758;2023-09-19T13:27:22;27.40;59.20
81895;DHT22;71358;45.642;13.758;2023-09-19T13:30:07;27.40;59.20
81895;DHT22;71358;45.642;13.758;2023-09-19T13:33:03;27.40;59.20
81895;DHT22;71358;45.642;13.758;2023-09-19T13:35:49;27.40;59.20
81895;DHT22;71358;45.642;13.758;2023-09-19T13:38:34;27.40;59.30
81895;DHT22;71358;45.642;13.758;2023-09-19T13:41:18;27.40;59.30
81895;DHT22;71358;45.642;13.758;2023-09-19T13:44:03;27.40;59.30
81895;DHT22;71358;45.642;13.758;2023-09-19T13:46:48;27.40;60.00
81895;DHT22;71358;45.642;13.758;2023-09-19T13:49:33;27.40;59.40
81895;DHT22;71358;45.642;13.758;2023-09-19T13:52:18;27.40;59.40
81895;DHT22;71358;45.642;13.758;2023-09-19T13:55:03;27.40;59.50
81895;DHT22;71358;45.642;13.758;2023-09-19T13:57:49;27.40;59.40
81895;DHT22;71358;45.642;13.758;2023-09-19T14:00:39;27.40;59.50
81895;DHT22;71358;45.642;13.758;2023-09-19T14:03:24;27.50;59.60
81895;DHT22;71358;45.642;13.758;2023-09-19T14:06:08;27.50;59.60
81895;DHT22;71358;45.642;13.758;2023-09-19T14:08:53;27.50;59.60
81895;DHT22;71358;45.642;13.758;2023-09-19T14:11:38;27.50;59.60
81895;DHT22;71358;45.642;13.758;2023-09-19T14:14:22;27.50;59.70
81895;DHT22;71358;45.642;13.758;2023-09-19T14:17:07;27.50;59.70
81895;DHT22;71358;45.642;13.758;2023-09-19T14:19:51;27.50;59.70
81895;DHT22;71358;45.642;13.758;2023-09-19T14:22:36;27.50;59.70
81895;DHT22;71358;45.642;13.758;2023-09-19T14:25:21;27.50;59.70
81895;DHT22;71358;45.642;13.758;2023-09-19T14:28:06;27.50;59.70
81895;DHT22;71358;45.642;13.758;2023-09-19T14:30:52;27.50;59.70
81895;DHT22;71358;45.642;13.758;2023-09-19T14:33:37;27.50;59.70
81895;DHT22;71358;45.642;13.758;2023-09-19T14:36:22;27.50;59.70
81895;DHT22;71358;45.642;13.758;2023-09-19T14:39:09;27.50;59.70
81895;DHT22;71358;45.642;13.758;2023-09-19T14:41:54;27.50;59.70
81895;DHT22;71358;45.642;13.758;2023-09-19T14:44:38;27.50;59.70
81895;DHT22;71358;45.642;13.758;2023-09-19T14:47:23;27.50;59.70
81895;DHT22;71358;45.642;13.758;2023-09-19T14:50:07;27.50;59.70
81895;DHT22;71358;45.642;13.758;2023-09-19T14:52:52;27.50;59.80
81895;DHT22;71358;45.642;13.758;2023-09-19T14:55:38;27.50;59.80
81895;DHT22;71358;45.642;13.758;2023-09-19T14:58:25;27.50;59.80
81895;DHT22;71358;45.642;13.758;2023-09-19T15:01:14;27.50;59.80
81895;DHT22;71358;45.642;13.758;2023-09-19T15:03:58;27.50;59.90
81895;DHT22;71358;45.642;13.758;2023-09-19T15:06:45;27.50;59.80
81895;DHT22;71358;45.642;13.758;2023-09-19T15:09:30;27.50;59.90
81895;DHT22;71358;45.642;13.758;2023-09-19T15:12:17;27.50;59.90
81895;DHT22;71358;45.642;13.758;2023-09-19T15:15:01;27.50;59.90
81895;DHT22;71358;45.642;13.758;2023-09-19T15:17:49;27.50;59.90
81895;DHT22;71358;45.642;13.758;2023-09-19T15:20:34;27.50;59.90
81895;DHT22;71358;45.642;13.758;2023-09-19T15:23:18;27.50;60.00
81895;DHT22;71358;45.642;13.758;2023-09-19T15:26:04;27.50;60.00
81895;DHT22;71358;45.642;13.758;2023-09-19T15:28:48;27.50;60.00
81895;DHT22;71358;45.642;13.758;2023-09-19T15:31:33;27.50;60.00
81895;DHT22;71358;45.642;13.758;2023-09-19T15:34:18;27.50;60.00
81895;DHT22;71358;45.642;13.758;2023-09-19T15:37:03;27.50;60.10
81895;DHT22;71358;45.642;13.758;2023-09-19T15:39:47;27.50;60.00
81895;DHT22;71358;45.642;13.758;2023-09-19T15:42:31;27.50;60.00
81895;DHT22;71358;45.642;13.758;2023-09-19T15:45:16;27.50;60.10
81895;DHT22;71358;45.642;13.758;2023-09-19T15:48:03;27.50;60.10
81895;DHT22;71358;45.642;13.758;2023-09-19T15:50:49;27.50;60.10
81895;DHT22;71358;45.642;13.758;2023-09-19T15:53:50;27.50;60.20
81895;DHT22;71358;45.642;13.758;2023-09-19T15:56:35;27.50;60.10
81895;DHT22;71358;45.642;13.758;2023-09-19T15:59:19;27.50;60.20
81895;DHT22;71358;45.642;13.758;2023-09-19T16:02:04;27.50;60.20
81895;DHT22;71358;45.642;13.758;2023-09-19T16:04:49;27.50;60.20
81895;DHT22;71358;45.642;13.758;2023-09-19T16:07:34;27.50;60.30
81895;DHT22;71358;45.642;13.758;2023-09-19T16:10:18;27.50;60.30
81895;DHT22;71358;45.642;13.758;2023-09-19T16:13:03;27.50;60.30
81895;DHT22;71358;45.642;13.758;2023-09-19T16:15:47;27.50;60.30
81895;DHT22;71358;45.642;13.758;2023-09-19T16:18:32;27.50;60.30
81895;DHT22;71358;45.642;13.758;2023-09-19T16:21:17;27.50;60.40
81895;DHT22;71358;45.642;13.758;2023-09-19T16:24:03;27.50;61.30
81895;DHT22;71358;45.642;13.758;2023-09-19T16:26:48;27.50;60.50
81895;DHT22;71358;45.642;13.758;2023-09-19T16:29:33;27.50;60.50
81895;DHT22;71358;45.642;13.758;2023-09-19T16:32:18;27.50;60.60
81895;DHT22;71358;45.642;13.758;2023-09-19T16:35:04;27.50;60.50
81895;DHT22;71358;45.642;13.758;2023-09-19T16:37:48;27.50;60.60
81895;DHT22;71358;45.642;13.758;2023-09-19T16:40:33;27.50;60.70
81895;DHT22;71358;45.642;13.758;2023-09-19T16:43:17;27.50;60.80
81895;DHT22;71358;45.642;13.758;2023-09-19T16:46:03;27.50;60.90
81895;DHT22;71358;45.642;13.758;2023-09-19T16:48:56;27.50;60.90
81895;DHT22;71358;45.642;13.758;2023-09-19T16:51:40;27.50;61.00
81895;DHT22;71358;45.642;13.758;2023-09-19T16:54:28;27.50;61.00
81895;DHT22;71358;45.642;13.758;2023-09-19T16:57:12;27.50;61.10
81895;DHT22;71358;45.642;13.758;2023-09-19T16:59:58;27.50;61.50
81895;DHT22;71358;45.642;13.758;2023-09-19T17:02:46;27.50;61.60
81895;DHT22;71358;45.642;13.758;2023-09-19T17:05:31;27.50;61.60
81895;DHT22;71358;45.642;13.758;2023-09-19T17:08:15;27.50;61.70
81895;DHT22;71358;45.642;13.758;2023-09-19T17:11:05;27.50;62.10
81895;DHT22;71358;45.642;13.758;2023-09-19T17:13:51;27.50;62.50
81895;DHT22;71358;45.642;13.758;2023-09-19T17:16:38;27.50;62.70
81895;DHT22;71358;45.642;13.758;2023-09-19T17:19:22;27.50;62.60
81895;DHT22;71358;45.642;13.758;2023-09-19T17:22:07;27.50;62.40
81895;DHT22;71358;45.642;13.758;2023-09-19T17:24:52;27.50;62.50
81895;DHT22;71358;45.642;13.758;2023-09-19T17:27:36;27.40;62.60
81895;DHT22;71358;45.642;13.758;2023-09-19T17:30:21;27.40;62.60
81895;DHT22;71358;45.642;13.758;2023-09-19T17:33:06;27.40;62.30
81895;DHT22;71358;45.642;13.758;2023-09-19T17:35:51;27.40;62.10
81895;DHT22;71358;45.642;13.758;2023-09-19T17:38:35;27.40;62.00
81895;DHT22;71358;45.642;13.758;2023-09-19T17:41:21;27.40;62.20